La Farge, Wisconsin
Current Conditions -  °F | °C
As of 3:15 AM on Sunday 26 Oct 2014 (Local Time) from KY51 Reporting Station
Clear Clear  
Wind Chill: 39°   Ceiling: Unl
Heat Index: 39°   Visibility: 10mi
Dew Point: 29°   Wind: 3mph
Humidity: 68%   Direction: 290°WNW
Pressure: 30.03"   Gusts: NA
Location:  43.57°N, 90.64°W
Report Text: KY51 260815Z AUTO 29003KT 10SM CLR 04/M01 A3003 RMK AO1 T00411014
Loading
Personal Weather Stations






























Interactive Weather Map
Tropical Storm Tracking
New forecast layout! Learn more

10-Day Weather Forecast

Advertisements
Track Severe Weather on mobile